Time,TemperatureF,DewpointF,PressureIn,WindDirection,WindDirectionDegrees,WindSpeedMPH,WindSpeedGustMPH,Humidity,HourlyPrecipIn,Conditions,Clouds,dailyrainin,SolarRadiationWatts/m^2,SoftwareType,DateUTC
2013-04-18 00:01:00,32.7,31.7,29.94,NNE,13,11.0,16.0,96,0.02,,---,0.23,0.00,VWS V14.01,2013-04-18 05:01:00,
2013-04-18 00:06:00,32.6,31.6,29.93,NNE,13,12.0,16.0,96,0.02,,---,0.00,0.00,VWS V14.01,2013-04-18 05:06:00,
2013-04-18 00:11:00,32.7,31.7,29.93,North,360,12.0,18.0,96,0.02,,---,0.00,0.00,VWS V14.01,2013-04-18 05:11:00,
2013-04-18 00:16:00,32.6,31.6,29.94,North,5,10.0,18.0,96,0.02,,---,0.00,0.00,VWS V14.01,2013-04-18 05:16:00,
2013-04-18 00:21:00,32.6,31.6,29.94,NNE,18,12.0,16.0,96,0.01,,---,0.00,0.00,VWS V14.01,2013-04-18 05:21:00,
2013-04-18 00:26:00,32.6,31.6,29.93,NNE,15,12.0,16.0,96,0.01,,---,0.00,0.00,VWS V14.01,2013-04-18 05:26:00,
2013-04-18 00:31:00,32.6,31.6,29.93,North,9,13.0,18.0,96,0.01,,---,0.00,0.00,VWS V14.01,2013-04-18 05:31:00,
2013-04-18 00:36:00,32.6,31.6,29.92,North,5,11.0,18.0,96,0.01,,---,0.00,0.00,VWS V14.01,2013-04-18 05:36:00,
2013-04-18 00:41:00,32.6,31.6,29.91,NNE,24,15.0,20.0,96,0.01,,---,0.00,0.00,VWS V14.01,2013-04-18 05:41:00,
2013-04-18 00:46:00,32.5,31.2,29.91,North,5,13.0,20.0,95,0.01,,---,0.00,0.00,VWS V14.01,2013-04-18 05:46:00,
2013-04-18 00:51:00,32.5,31.2,29.90,NNE,19,11.0,17.0,95,0.02,,---,0.01,0.00,VWS V14.01,2013-04-18 05:51:00,
2013-04-18 00:56:00,32.4,31.1,29.90,NNE,15,19.0,19.0,95,0.02,,---,0.01,0.00,VWS V14.01,2013-04-18 05:56:00,
2013-04-18 01:01:00,32.4,31.1,29.90,North,9,14.0,19.0,95,0.02,,---,0.01,0.00,VWS V14.01,2013-04-18 06:01:00,
2013-04-18 01:06:00,32.4,31.4,29.89,North,355,13.0,20.0,96,0.01,,---,0.01,0.00,VWS V14.01,2013-04-18 06:06:00,
2013-04-18 01:11:00,32.4,31.4,29.88,North,11,14.0,20.0,96,0.01,,---,0.01,0.00,VWS V14.01,2013-04-18 06:11:00,
2013-04-18 01:16:00,32.4,31.4,29.87,NNE,30,20.0,21.0,96,0.01,,---,0.01,0.00,VWS V14.01,2013-04-18 06:16:00,
2013-04-18 01:21:00,32.4,31.4,29.87,NNW,347,16.0,18.0,96,0.01,,---,0.01,0.00,VWS V14.01,2013-04-18 06:21:00,
2013-04-18 01:26:00,32.4,31.4,29.88,North,9,19.0,20.0,96,0.01,,---,0.01,0.00,VWS V14.01,2013-04-18 06:26:00,
2013-04-18 01:31:00,32.4,31.4,29.89,NNE,28,13.0,20.0,96,0.01,,---,0.01,0.00,VWS V14.01,2013-04-18 06:31:00,
2013-04-18 01:36:00,32.4,31.4,29.88,North,5,11.0,22.0,96,0.01,,---,0.01,0.00,VWS V14.01,2013-04-18 06:36:00,
2013-04-18 01:42:00,32.4,31.1,29.86,NNE,19,16.0,22.0,95,0.01,,---,0.01,0.00,VWS V14.01,2013-04-18 06:42:00,
2013-04-18 01:46:00,32.5,31.2,29.86,North,9,18.0,22.0,95,0.01,,---,0.01,0.00,VWS V14.01,2013-04-18 06:46:00,
2013-04-18 01:51:00,32.5,31.2,29.86,NNE,21,15.0,19.0,95,0.00,,---,0.01,0.00,VWS V14.01,2013-04-18 06:51:00,
2013-04-18 01:56:00,32.5,31.2,29.86,NNE,15,14.0,22.0,95,0.00,,---,0.01,0.00,VWS V14.01,2013-04-18 06:56:00,
2013-04-18 02:01:00,32.5,31.2,29.86,North,5,11.0,22.0,95,0.00,,---,0.01,0.00,VWS V14.01,2013-04-18 07:01:00,
2013-04-18 02:06:00,32.6,31.3,29.86,NNE,28,16.0,19.0,95,0.00,,---,0.01,0.00,VWS V14.01,2013-04-18 07:06:00,
2013-04-18 02:11:00,32.6,31.3,29.88,North,350,12.0,20.0,95,0.00,,---,0.01,0.00,VWS V14.01,2013-04-18 07:11:00,
2013-04-18 02:16:00,32.6,31.3,29.87,North,360,17.0,20.0,95,0.00,,---,0.01,0.00,VWS V14.01,2013-04-18 07:16:00,
2013-04-18 02:21:00,32.6,31.3,29.86,North,360,12.0,19.0,95,0.00,,---,0.01,0.00,VWS V14.01,2013-04-18 07:21:00,
2013-04-18 02:26:00,32.6,31.3,29.87,NNE,14,10.0,19.0,95,0.00,,---,0.01,0.00,VWS V14.01,2013-04-18 07:26:00,
2013-04-18 02:31:00,32.6,31.3,29.87,North,355,11.0,19.0,95,0.00,,---,0.01,0.00,VWS V14.01,2013-04-18 07:31:00,
2013-04-18 02:36:00,32.6,31.3,29.87,NNE,13,15.0,19.0,95,0.00,,---,0.01,0.00,VWS V14.01,2013-04-18 07:36:00,
2013-04-18 02:41:00,32.6,31.1,29.86,North,10,17.0,19.0,94,0.00,,---,0.01,0.00,VWS V14.01,2013-04-18 07:41:00,
2013-04-18 02:46:00,32.7,31.2,29.88,NNW,344,13.0,19.0,94,0.00,,---,0.01,0.00,VWS V14.01,2013-04-18 07:46:00,
2013-04-18 02:51:00,32.7,31.2,29.89,NNE,13,9.0,13.0,94,0.00,,---,0.01,0.00,VWS V14.01,2013-04-18 07:51:00,
2013-04-18 02:56:00,32.7,31.2,29.89,North,5,13.0,14.0,94,0.00,,---,0.01,0.00,VWS V14.01,2013-04-18 07:56:00,
2013-04-18 03:01:00,32.8,31.3,29.88,NNE,15,12.0,17.0,94,0.00,,---,0.01,0.00,VWS V14.01,2013-04-18 08:01:00,
2013-04-18 03:07:00,32.7,30.9,29.86,NNE,25,9.0,16.0,93,0.00,,---,0.01,0.00,VWS V14.01,2013-04-18 08:07:00,
2013-04-18 03:12:00,32.7,30.9,29.88,NNE,22,11.0,16.0,93,0.00,,---,0.01,0.00,VWS V14.01,2013-04-18 08:12:00,
2013-04-18 03:16:00,32.7,30.9,29.88,NNE,16,11.0,16.0,93,0.00,,---,0.01,0.00,VWS V14.01,2013-04-18 08:16:00,
2013-04-18 03:22:00,32.7,30.9,29.87,NNE,13,14.0,17.0,93,0.00,,---,0.01,0.00,VWS V14.01,2013-04-18 08:22:00,
2013-04-18 03:27:00,32.7,30.9,29.87,NNE,14,12.0,17.0,93,0.00,,---,0.01,0.00,VWS V14.01,2013-04-18 08:27:00,
2013-04-18 03:31:00,32.7,30.9,29.88,North,350,9.0,17.0,93,0.00,,---,0.01,0.00,VWS V14.01,2013-04-18 08:31:00,
2013-04-18 03:36:00,32.7,30.9,29.89,NNW,343,13.0,20.0,93,0.00,,---,0.01,0.00,VWS V14.01,2013-04-18 08:36:00,
2013-04-18 03:41:00,32.7,30.9,29.90,NNW,336,13.0,20.0,93,0.00,,---,0.01,0.00,VWS V14.01,2013-04-18 08:41:00,
2013-04-18 03:46:00,32.7,30.9,29.90,NNW,338,15.0,20.0,93,0.00,,---,0.01,0.00,VWS V14.01,2013-04-18 08:46:00,
2013-04-18 03:51:00,32.8,31.0,29.91,NNW,338,14.0,16.0,93,0.00,,---,0.01,0.00,VWS V14.01,2013-04-18 08:51:00,
2013-04-18 03:56:00,32.8,31.0,29.91,NNW,333,13.0,16.0,93,0.00,,---,0.01,0.00,VWS V14.01,2013-04-18 08:56:00,
2013-04-18 04:01:00,32.8,31.0,29.91,NNW,334,13.0,16.0,93,0.00,,---,0.01,0.00,VWS V14.01,2013-04-18 09:01:00,
2013-04-18 04:06:00,32.7,30.9,29.90,NNW,329,12.0,15.0,93,0.00,,---,0.01,0.00,VWS V14.01,2013-04-18 09:06:00,
2013-04-18 04:11:00,32.6,30.8,29.88,NNW,344,15.0,17.0,93,0.00,,---,0.01,0.00,VWS V14.01,2013-04-18 09:11:00,
2013-04-18 04:17:00,32.4,30.6,29.86,NNW,338,15.0,17.0,93,0.00,,---,0.01,0.00,VWS V14.01,2013-04-18 09:17:00,
2013-04-18 04:22:00,32.3,30.5,29.86,NNW,345,12.0,16.0,93,0.00,,---,0.01,0.00,VWS V14.01,2013-04-18 09:22:00,
2013-04-18 04:27:00,32.2,30.7,29.86,NNW,342,13.0,16.0,94,0.00,,---,0.01,0.00,VWS V14.01,2013-04-18 09:27:00,
2013-04-18 04:32:00,32.1,30.6,29.85,NNW,344,11.0,16.0,94,0.00,,---,0.01,0.00,VWS V14.01,2013-04-18 09:32:00,
2013-04-18 04:37:00,32.1,30.6,29.85,NNW,342,10.0,14.0,94,0.00,,---,0.01,0.00,VWS V14.01,2013-04-18 09:37:00,
2013-04-18 04:42:00,32.0,30.5,29.83,NNE,15,7.0,14.0,94,0.00,,---,0.01,0.00,VWS V14.01,2013-04-18 09:42:00,
2013-04-18 04:47:00,32.0,30.5,29.84,North,5,11.0,14.0,94,0.00,,---,0.01,0.00,VWS V14.01,2013-04-18 09:47:00,
2013-04-18 04:52:00,32.0,30.5,29.83,North,355,14.0,16.0,94,0.00,,---,0.01,0.00,VWS V14.01,2013-04-18 09:52:00,
2013-04-18 04:57:00,32.0,30.5,29.83,North,5,12.0,16.0,94,0.00,,---,0.01,0.00,VWS V14.01,2013-04-18 09:57:00,
2013-04-18 05:02:00,32.0,30.7,29.85,NNW,344,11.0,18.0,95,0.00,,---,0.01,0.00,VWS V14.01,2013-04-18 10:02:00,
2013-04-18 05:07:00,32.1,30.8,29.85,North,355,10.0,17.0,95,0.00,,---,0.01,0.00,VWS V14.01,2013-04-18 10:07:00,
2013-04-18 05:12:00,32.1,30.8,29.84,North,360,10.0,18.0,95,0.00,,---,0.01,0.00,VWS V14.01,2013-04-18 10:12:00,
2013-04-18 05:17:00,32.1,30.8,29.82,NNE,15,7.0,18.0,95,0.00,,---,0.01,0.00,VWS V14.01,2013-04-18 10:17:00,
2013-04-18 05:22:00,32.0,30.7,29.82,NNW,348,9.0,13.0,95,0.00,,---,0.01,0.00,VWS V14.01,2013-04-18 10:22:00,
2013-04-18 05:27:00,32.0,30.7,29.82,NNE,17,12.0,17.0,95,0.00,,---,0.01,0.00,VWS V14.01,2013-04-18 10:27:00,
2013-04-18 05:32:00,32.0,30.7,29.81,NNE,21,11.0,17.0,95,0.00,,---,0.01,0.00,VWS V14.01,2013-04-18 10:32:00,
2013-04-18 05:37:00,31.9,30.6,29.80,NNE,28,10.0,17.0,95,0.00,,---,0.01,0.00,VWS V14.01,2013-04-18 10:37:00,
2013-04-18 05:42:00,31.9,30.6,29.79,NNW,345,14.0,18.0,95,0.00,,---,0.01,0.00,VWS V14.01,2013-04-18 10:42:00,
2013-04-18 05:47:00,31.9,30.6,29.80,NNW,348,10.0,18.0,95,0.00,,---,0.01,0.00,VWS V14.01,2013-04-18 10:47:00,
2013-04-18 05:52:00,31.9,30.6,29.80,North,355,7.0,15.0,95,0.00,,---,0.01,0.00,VWS V14.01,2013-04-18 10:52:00,
2013-04-18 05:57:00,31.9,30.6,29.80,North,350,9.0,15.0,95,0.00,,---,0.01,0.00,VWS V14.01,2013-04-18 10:57:00,
2013-04-18 06:02:00,31.9,30.6,29.80,North,9,10.0,15.0,95,0.00,,---,0.01,0.00,VWS V14.01,2013-04-18 11:02:00,
2013-04-18 06:07:00,31.9,30.4,29.80,North,10,11.0,17.0,94,0.00,,---,0.01,0.00,VWS V14.01,2013-04-18 11:07:00,
2013-04-18 06:12:00,31.9,30.4,29.80,North,360,10.0,17.0,94,0.00,,---,0.01,0.00,VWS V14.01,2013-04-18 11:12:00,
2013-04-18 06:17:00,31.9,30.4,29.80,North,360,15.0,18.0,94,0.00,,---,0.01,0.00,VWS V14.01,2013-04-18 11:17:00,
2013-04-18 06:22:00,31.9,30.4,29.80,North,360,13.0,18.0,94,0.00,,---,0.01,0.00,VWS V14.01,2013-04-18 11:22:00,
2013-04-18 06:27:00,31.9,30.4,29.80,North,360,13.0,18.0,94,0.00,,---,0.01,0.00,VWS V14.01,2013-04-18 11:27:00,
2013-04-18 06:32:00,31.9,30.4,29.78,North,360,12.0,20.0,94,0.00,,---,0.01,0.00,VWS V14.01,2013-04-18 11:32:00,
2013-04-18 06:37:00,31.9,30.4,29.76,North,360,14.0,17.0,94,0.00,,---,0.01,0.00,VWS V14.01,2013-04-18 11:37:00,
2013-04-18 06:42:00,31.9,30.4,29.77,NNE,30,11.0,22.0,94,0.00,,---,0.01,0.00,VWS V14.01,2013-04-18 11:42:00,
2013-04-18 06:47:00,31.9,30.4,29.80,NNW,341,19.0,22.0,94,0.00,,---,0.01,0.00,VWS V14.01,2013-04-18 11:47:00,
2013-04-18 06:52:00,32.0,30.5,29.81,NNW,333,16.0,20.0,94,0.00,,---,0.01,0.00,VWS V14.01,2013-04-18 11:52:00,
2013-04-18 06:57:00,32.0,30.2,29.81,NNW,341,15.0,21.0,93,0.00,,---,0.01,5.00,VWS V14.01,2013-04-18 11:57:00,
2013-04-18 07:02:00,32.1,30.3,29.80,NNW,345,14.0,21.0,93,0.00,,---,0.01,7.00,VWS V14.01,2013-04-18 12:02:00,
2013-04-18 07:07:00,32.0,30.2,29.79,North,360,11.0,16.0,93,0.00,,---,0.01,7.00,VWS V14.01,2013-04-18 12:07:00,
2013-04-18 07:12:00,32.0,30.2,29.79,North,360,12.0,21.0,93,0.00,,---,0.01,9.00,VWS V14.01,2013-04-18 12:12:00,
2013-04-18 07:17:00,32.0,30.2,29.79,North,355,17.0,22.0,93,0.00,,---,0.01,9.00,VWS V14.01,2013-04-18 12:17:00,
2013-04-18 07:22:00,32.1,30.3,29.77,NNW,344,14.0,19.0,93,0.00,,---,0.01,11.00,VWS V14.01,2013-04-18 12:22:00,
2013-04-18 07:27:00,32.1,30.3,29.77,NNW,339,15.0,25.0,93,0.00,,---,0.01,11.00,VWS V14.01,2013-04-18 12:27:00,
2013-04-18 07:32:00,32.1,30.3,29.76,NNE,14,14.0,25.0,93,0.00,,---,0.01,14.00,VWS V14.01,2013-04-18 12:32:00,
2013-04-18 07:37:00,32.1,30.3,29.76,North,360,24.0,24.0,93,0.00,,---,0.01,26.00,VWS V14.01,2013-04-18 12:37:00,
2013-04-18 07:42:00,32.1,30.3,29.76,NNE,21,19.0,24.0,93,0.00,,---,0.01,32.00,VWS V14.01,2013-04-18 12:42:00,
2013-04-18 07:47:00,32.1,30.3,29.76,NNW,330,15.0,24.0,93,0.00,,---,0.01,25.00,VWS V14.01,2013-04-18 12:47:00,
2013-04-18 07:52:00,32.1,30.3,29.77,NNW,339,13.0,21.0,93,0.00,,---,0.01,14.00,VWS V14.01,2013-04-18 12:52:00,
2013-04-18 07:57:00,32.1,30.3,29.76,NNW,338,17.0,21.0,93,0.00,,---,0.01,23.00,VWS V14.01,2013-04-18 12:57:00,
2013-04-18 08:02:00,32.1,30.3,29.75,North,360,15.0,25.0,93,0.00,,---,0.01,40.00,VWS V14.01,2013-04-18 13:02:00,
2013-04-18 08:07:00,32.1,30.0,29.76,North,350,16.0,21.0,92,0.00,,---,0.01,21.00,VWS V14.01,2013-04-18 13:07:00,
2013-04-18 08:12:00,32.1,30.0,29.76,North,355,14.0,21.0,92,0.00,,---,0.01,18.00,VWS V14.01,2013-04-18 13:12:00,
2013-04-18 08:17:00,32.0,29.9,29.76,NNW,346,14.0,27.0,92,0.00,,---,0.01,28.00,VWS V14.01,2013-04-18 13:17:00,
2013-04-18 08:22:00,32.0,29.9,29.75,NNW,343,19.0,25.0,92,0.01,,---,0.02,23.00,VWS V14.01,2013-04-18 13:22:00,
2013-04-18 08:27:00,32.0,29.9,29.75,NNW,344,16.0,25.0,92,0.01,,---,0.02,19.00,VWS V14.01,2013-04-18 13:27:00,
2013-04-18 08:32:00,32.0,29.9,29.72,North,360,14.0,25.0,92,0.01,,---,0.02,26.00,VWS V14.01,2013-04-18 13:32:00,
2013-04-18 08:37:00,31.9,29.8,29.72,NNE,26,17.0,20.0,92,0.01,,---,0.02,23.00,VWS V14.01,2013-04-18 13:37:00,
2013-04-18 08:42:00,31.9,29.8,29.71,North,5,14.0,27.0,92,0.01,,---,0.02,39.00,VWS V14.01,2013-04-18 13:42:00,
2013-04-18 08:47:00,31.8,29.8,29.71,NNW,336,6.0,27.0,92,0.01,,---,0.02,39.00,VWS V14.01,2013-04-18 13:47:00,
2013-04-18 08:52:00,31.7,29.9,29.73,NNW,339,14.0,24.0,93,0.01,,---,0.02,16.00,VWS V14.01,2013-04-18 13:52:00,
2013-04-18 08:57:00,31.6,29.8,29.74,NNW,340,18.0,24.0,93,0.01,,---,0.02,18.00,VWS V14.01,2013-04-18 13:57:00,
2013-04-18 09:02:00,31.5,29.7,29.73,NNE,26,17.0,24.0,93,0.01,,---,0.02,58.00,VWS V14.01,2013-04-18 14:02:00,
2013-04-18 09:07:00,31.5,29.7,29.72,NNW,334,17.0,21.0,93,0.01,,---,0.02,67.00,VWS V14.01,2013-04-18 14:07:00,
2013-04-18 09:12:00,31.4,29.6,29.72,North,355,16.0,21.0,93,0.01,,---,0.02,93.00,VWS V14.01,2013-04-18 14:12:00,
2013-04-18 09:17:00,31.4,29.9,29.71,NNE,13,17.0,21.0,94,0.01,,---,0.02,88.00,VWS V14.01,2013-04-18 14:17:00,
2013-04-18 09:22:00,31.3,29.8,29.73,NNE,19,18.0,18.0,94,0.01,,---,0.02,47.00,VWS V14.01,2013-04-18 14:22:00,
2013-04-18 09:27:00,31.2,29.7,29.74,NNW,333,15.0,21.0,94,0.01,,---,0.02,83.00,VWS V14.01,2013-04-18 14:27:00,
2013-04-18 09:32:00,31.1,29.6,29.73,North,360,11.0,22.0,94,0.01,,---,0.02,113.00,VWS V14.01,2013-04-18 14:32:00,
2013-04-18 09:37:00,31.2,29.7,29.73,NNW,348,12.0,19.0,94,0.00,,---,0.02,142.00,VWS V14.01,2013-04-18 14:37:00,
2013-04-18 09:42:00,31.1,29.6,29.73,NNW,348,9.0,19.0,94,0.00,,---,0.02,149.00,VWS V14.01,2013-04-18 14:42:00,
2013-04-18 09:47:00,31.2,29.7,29.73,NNW,335,11.0,19.0,94,0.00,,---,0.02,137.00,VWS V14.01,2013-04-18 14:47:00,
2013-04-18 09:52:00,31.1,29.6,29.73,NNW,338,13.0,16.0,94,0.00,,---,0.02,137.00,VWS V14.01,2013-04-18 14:52:00,
2013-04-18 09:57:00,31.2,29.7,29.73,NNW,337,13.0,16.0,94,0.00,,---,0.02,148.00,VWS V14.01,2013-04-18 14:57:00,
2013-04-18 10:02:00,31.2,29.7,29.74,North,350,10.0,16.0,94,0.00,,---,0.02,128.00,VWS V14.01,2013-04-18 15:02:00,
2013-04-18 10:07:00,31.2,29.9,29.73,NNW,338,9.0,15.0,95,0.00,,---,0.02,100.00,VWS V14.01,2013-04-18 15:07:00,
2013-04-18 10:12:00,31.1,29.8,29.73,NNW,340,11.0,15.0,95,0.00,,---,0.02,105.00,VWS V14.01,2013-04-18 15:12:00,
2013-04-18 10:17:00,31.1,29.8,29.74,NNW,342,14.0,16.0,95,0.00,,---,0.02,118.00,VWS V14.01,2013-04-18 15:17:00,
2013-04-18 10:22:00,31.1,29.8,29.73,NNW,330,17.0,18.0,95,0.00,,---,0.02,134.00,VWS V14.01,2013-04-18 15:22:00,
2013-04-18 10:27:00,31.0,29.7,29.73,NNW,341,15.0,20.0,95,0.00,,---,0.02,105.00,VWS V14.01,2013-04-18 15:27:00,
2013-04-18 10:32:00,31.0,29.7,29.73,NNW,344,16.0,20.0,95,0.00,,---,0.02,54.00,VWS V14.01,2013-04-18 15:32:00,
2013-04-18 10:37:00,31.0,29.7,29.74,NNW,346,12.0,17.0,95,0.00,,---,0.02,49.00,VWS V14.01,2013-04-18 15:37:00,
2013-04-18 10:42:00,30.9,29.6,29.72,NNW,334,12.0,20.0,95,0.00,,---,0.02,98.00,VWS V14.01,2013-04-18 15:42:00,
2013-04-18 10:47:00,31.0,29.7,29.73,NNW,338,16.0,20.0,95,0.00,,---,0.02,151.00,VWS V14.01,2013-04-18 15:47:00,
2013-04-18 10:52:00,31.1,29.8,29.74,NNW,334,14.0,18.0,95,0.00,,---,0.02,128.00,VWS V14.01,2013-04-18 15:52:00,
2013-04-18 10:57:00,31.1,29.8,29.74,NNW,341,14.0,18.0,95,0.00,,---,0.02,155.00,VWS V14.01,2013-04-18 15:57:00,
2013-04-18 11:02:00,31.0,29.7,29.74,NNW,338,13.0,18.0,95,0.00,,---,0.02,195.00,VWS V14.01,2013-04-18 16:02:00,
2013-04-18 11:07:00,31.0,29.7,29.73,NNW,340,12.0,17.0,95,0.00,,---,0.02,211.00,VWS V14.01,2013-04-18 16:07:00,
2013-04-18 11:12:00,31.0,29.7,29.74,NNW,344,14.0,17.0,95,0.00,,---,0.02,207.00,VWS V14.01,2013-04-18 16:12:00,
2013-04-18 11:17:00,31.0,29.7,29.73,NNW,342,13.0,17.0,95,0.00,,---,0.02,206.00,VWS V14.01,2013-04-18 16:17:00,
2013-04-18 11:22:00,31.0,29.7,29.73,NNW,342,13.0,16.0,95,0.00,,---,0.02,218.00,VWS V14.01,2013-04-18 16:22:00,
2013-04-18 11:27:00,30.9,29.6,29.72,NNW,338,12.0,16.0,95,0.00,,---,0.02,243.00,VWS V14.01,2013-04-18 16:27:00,
2013-04-18 11:32:00,30.9,29.6,29.71,NNW,339,14.0,16.0,95,0.01,,---,0.03,255.00,VWS V14.01,2013-04-18 16:32:00,
2013-04-18 11:37:00,31.0,29.7,29.72,NNW,339,11.0,16.0,95,0.01,,---,0.03,315.00,VWS V14.01,2013-04-18 16:37:00,
2013-04-18 11:42:00,31.0,29.7,29.72,NNW,336,15.0,17.0,95,0.01,,---,0.03,304.00,VWS V14.01,2013-04-18 16:42:00,
2013-04-18 11:47:00,31.0,29.7,29.71,NNW,331,22.0,25.0,95,0.02,,---,0.04,260.00,VWS V14.01,2013-04-18 16:47:00,
2013-04-18 11:52:00,31.0,29.7,29.71,NNW,344,19.0,27.0,95,0.02,,---,0.04,234.00,VWS V14.01,2013-04-18 16:52:00,
2013-04-18 11:57:00,31.0,29.7,29.72,NNW,338,24.0,27.0,95,0.02,,---,0.04,223.00,VWS V14.01,2013-04-18 16:57:00,
2013-04-18 12:02:00,31.0,29.7,29.71,NNW,341,21.0,27.0,95,0.03,,---,0.05,239.00,VWS V14.01,2013-04-18 17:02:00,
2013-04-18 12:07:00,31.0,29.7,29.71,NNW,340,18.0,26.0,95,0.03,,---,0.05,214.00,VWS V14.01,2013-04-18 17:07:00,
2013-04-18 12:12:00,31.0,29.7,29.72,NNW,331,19.0,27.0,95,0.03,,---,0.05,230.00,VWS V14.01,2013-04-18 17:12:00,
2013-04-18 12:17:00,31.0,29.7,29.72,NNW,336,19.0,27.0,95,0.03,,---,0.05,265.00,VWS V14.01,2013-04-18 17:17:00,
2013-04-18 12:22:00,31.0,29.7,29.71,NNW,341,19.0,24.0,95,0.03,,---,0.05,276.00,VWS V14.01,2013-04-18 17:22:00,
2013-04-18 12:27:00,31.0,29.7,29.72,NNW,332,18.0,24.0,95,0.03,,---,0.05,223.00,VWS V14.01,2013-04-18 17:27:00,
2013-04-18 12:32:00,31.0,29.7,29.71,NNW,341,23.0,24.0,95,0.03,,---,0.05,253.00,VWS V14.01,2013-04-18 17:32:00,
2013-04-18 12:37:00,31.0,29.7,29.70,NNW,344,19.0,22.0,95,0.03,,---,0.06,248.00,VWS V14.01,2013-04-18 17:37:00,
2013-04-18 12:42:00,31.0,29.7,29.69,NNW,341,18.0,24.0,95,0.03,,---,0.06,211.00,VWS V14.01,2013-04-18 17:42:00,
2013-04-18 12:47:00,30.9,29.6,29.69,NNW,338,19.0,24.0,95,0.03,,---,0.06,234.00,VWS V14.01,2013-04-18 17:47:00,
2013-04-18 12:52:00,31.0,29.7,29.69,NNW,336,19.0,23.0,95,0.02,,---,0.06,320.00,VWS V14.01,2013-04-18 17:52:00,
2013-04-18 12:57:00,31.1,29.8,29.69,NNW,340,19.0,27.0,95,0.03,,---,0.07,339.00,VWS V14.01,2013-04-18 17:57:00,
2013-04-18 13:02:00,31.1,29.8,29.69,NNW,331,22.0,28.0,95,0.03,,---,0.07,364.00,VWS V14.01,2013-04-18 18:02:00,
2013-04-18 13:07:00,31.1,29.8,29.69,NNW,340,21.0,26.0,95,0.02,,---,0.07,341.00,VWS V14.01,2013-04-18 18:07:00,
2013-04-18 13:12:00,31.2,29.9,29.68,NNW,334,19.0,26.0,95,0.02,,---,0.07,322.00,VWS V14.01,2013-04-18 18:12:00,
2013-04-18 13:17:00,31.2,29.9,29.67,NW,324,21.0,26.0,95,0.02,,---,0.07,352.00,VWS V14.01,2013-04-18 18:17:00,
2013-04-18 13:22:00,31.2,29.9,29.67,NNW,340,23.0,27.0,95,0.03,,---,0.08,207.00,VWS V14.01,2013-04-18 18:22:00,
2013-04-18 13:27:00,31.2,29.9,29.67,NNW,327,20.0,27.0,95,0.03,,---,0.08,243.00,VWS V14.01,2013-04-18 18:27:00,
2013-04-18 13:32:00,31.1,29.8,29.67,NNW,333,19.0,27.0,95,0.03,,---,0.08,295.00,VWS V14.01,2013-04-18 18:32:00,
2013-04-18 13:37:00,31.2,29.9,29.66,NNW,341,22.0,28.0,95,0.03,,---,0.08,309.00,VWS V14.01,2013-04-18 18:37:00,
2013-04-18 13:42:00,31.2,29.9,29.66,NNW,339,20.0,28.0,95,0.03,,---,0.08,306.00,VWS V14.01,2013-04-18 18:42:00,
2013-04-18 13:47:00,31.2,29.9,29.66,NW,322,17.0,28.0,95,0.04,,---,0.09,301.00,VWS V14.01,2013-04-18 18:47:00,
2013-04-18 13:52:00,31.2,30.2,29.66,NNW,344,25.0,29.0,96,0.03,,---,0.09,292.00,VWS V14.01,2013-04-18 18:52:00,
2013-04-18 13:57:00,31.2,30.2,29.66,NNW,340,20.0,29.0,96,0.03,,---,0.09,308.00,VWS V14.01,2013-04-18 18:57:00,
2013-04-18 14:02:00,31.2,30.2,29.66,NNW,342,21.0,29.0,96,0.03,,---,0.09,285.00,VWS V14.01,2013-04-18 19:02:00,
2013-04-18 14:07:00,31.2,30.2,29.66,NNW,337,23.0,33.0,96,0.02,,---,0.09,206.00,VWS V14.01,2013-04-18 19:07:00,
2013-04-18 14:12:00,31.2,30.2,29.65,NNW,341,21.0,33.0,96,0.02,,---,0.09,237.00,VWS V14.01,2013-04-18 19:12:00,
2013-04-18 14:17:00,31.2,30.2,29.65,NNW,335,25.0,33.0,96,0.03,,---,0.10,299.00,VWS V14.01,2013-04-18 19:17:00,
2013-04-18 14:22:00,31.3,30.3,29.66,NNW,338,21.0,27.0,96,0.03,,---,0.10,281.00,VWS V14.01,2013-04-18 19:22:00,
2013-04-18 14:27:00,31.3,30.3,29.66,NNW,336,19.0,27.0,96,0.03,,---,0.10,237.00,VWS V14.01,2013-04-18 19:27:00,
2013-04-18 14:32:00,31.3,30.3,29.66,NNW,340,21.0,30.0,96,0.03,,---,0.10,272.00,VWS V14.01,2013-04-18 19:32:00,
2013-04-18 14:37:00,31.3,30.3,29.65,NNW,341,26.0,30.0,96,0.02,,---,0.10,271.00,VWS V14.01,2013-04-18 19:37:00,
2013-04-18 14:42:00,31.3,30.3,29.66,NNW,346,23.0,30.0,96,0.02,,---,0.10,267.00,VWS V14.01,2013-04-18 19:42:00,
2013-04-18 14:47:00,31.3,30.3,29.66,NNW,340,24.0,30.0,96,0.03,,---,0.11,260.00,VWS V14.01,2013-04-18 19:47:00,
2013-04-18 14:52:00,31.3,30.3,29.66,NNW,338,29.0,31.0,96,0.02,,---,0.11,232.00,VWS V14.01,2013-04-18 19:52:00,
2013-04-18 14:57:00,31.2,30.2,29.66,NNW,340,23.0,31.0,96,0.02,,---,0.11,260.00,VWS V14.01,2013-04-18 19:57:00,
2013-04-18 15:02:00,31.3,30.3,29.65,NNW,345,24.0,31.0,96,0.02,,---,0.11,260.00,VWS V14.01,2013-04-18 20:02:00,
2013-04-18 15:07:00,31.3,30.3,29.65,North,349,21.0,26.0,96,0.02,,---,0.11,264.00,VWS V14.01,2013-04-18 20:07:00,
2013-04-18 15:12:00,31.3,30.3,29.65,NNW,342,22.0,29.0,96,0.02,,---,0.11,234.00,VWS V14.01,2013-04-18 20:12:00,
2013-04-18 15:17:00,31.2,30.2,29.65,NNW,330,30.0,30.0,96,0.03,,---,0.12,218.00,VWS V14.01,2013-04-18 20:17:00,
2013-04-18 15:22:00,31.2,30.2,29.64,NNW,337,20.0,31.0,96,0.02,,---,0.12,236.00,VWS V14.01,2013-04-18 20:22:00,
2013-04-18 15:27:00,31.2,30.2,29.65,NNW,340,24.0,31.0,96,0.02,,---,0.12,248.00,VWS V14.01,2013-04-18 20:27:00,
2013-04-18 15:33:00,31.2,30.2,29.65,NNW,334,20.0,31.0,96,0.02,,---,0.12,253.00,VWS V14.01,2013-04-18 20:33:00,
2013-04-18 15:38:00,31.3,30.3,29.65,NNW,343,23.0,24.0,96,0.03,,---,0.13,288.00,VWS V14.01,2013-04-18 20:38:00,
2013-04-18 15:43:00,31.3,30.3,29.65,NNW,340,25.0,26.0,96,0.03,,---,0.13,281.00,VWS V14.01,2013-04-18 20:43:00,
2013-04-18 15:48:00,31.3,30.3,29.65,NNW,345,19.0,28.0,96,0.03,,---,0.13,232.00,VWS V14.01,2013-04-18 20:48:00,
2013-04-18 15:53:00,31.3,30.3,29.65,NNW,340,18.0,26.0,96,0.02,,---,0.13,221.00,VWS V14.01,2013-04-18 20:53:00,
2013-04-18 15:58:00,31.3,30.3,29.64,NNW,341,20.0,26.0,96,0.02,,---,0.13,251.00,VWS V14.01,2013-04-18 20:58:00,
2013-04-18 16:03:00,31.3,30.3,29.64,NNW,338,18.0,26.0,96,0.02,,---,0.13,241.00,VWS V14.01,2013-04-18 21:03:00,
2013-04-18 16:08:00,31.3,30.3,29.64,NNW,338,20.0,25.0,96,0.02,,---,0.13,211.00,VWS V14.01,2013-04-18 21:08:00,
2013-04-18 16:13:00,31.3,30.3,29.64,NNW,338,20.0,25.0,96,0.03,,---,0.14,202.00,VWS V14.01,2013-04-18 21:13:00,
2013-04-18 16:18:00,31.3,30.3,29.64,NNW,337,20.0,25.0,96,0.03,,---,0.14,195.00,VWS V14.01,2013-04-18 21:18:00,
2013-04-18 16:23:00,31.3,30.3,29.65,NW,323,18.0,23.0,96,0.02,,---,0.14,171.00,VWS V14.01,2013-04-18 21:23:00,
2013-04-18 16:28:00,31.4,30.4,29.64,NNW,331,19.0,23.0,96,0.02,,---,0.14,174.00,VWS V14.01,2013-04-18 21:28:00,
2013-04-18 16:33:00,31.4,30.4,29.64,NNW,336,20.0,23.0,96,0.02,,---,0.14,151.00,VWS V14.01,2013-04-18 21:33:00,
2013-04-18 16:38:00,31.4,30.4,29.64,NNW,342,21.0,22.0,96,0.02,,---,0.14,151.00,VWS V14.01,2013-04-18 21:38:00,
2013-04-18 16:43:00,31.4,30.4,29.64,NNW,333,19.0,23.0,96,0.02,,---,0.14,149.00,VWS V14.01,2013-04-18 21:43:00,
2013-04-18 16:48:00,31.5,30.5,29.64,NNW,339,17.0,26.0,96,0.02,,---,0.14,153.00,VWS V14.01,2013-04-18 21:48:00,
2013-04-18 16:53:00,31.5,30.5,29.64,NNW,335,19.0,22.0,96,0.01,,---,0.14,165.00,VWS V14.01,2013-04-18 21:53:00,
2013-04-18 16:58:00,31.5,30.5,29.64,NNW,334,18.0,23.0,96,0.02,,---,0.15,160.00,VWS V14.01,2013-04-18 21:58:00,
2013-04-18 17:03:00,31.5,30.5,29.65,NNW,331,21.0,23.0,96,0.02,,---,0.15,142.00,VWS V14.01,2013-04-18 22:03:00,
2013-04-18 17:08:00,31.5,30.5,29.65,NNW,338,18.0,24.0,96,0.02,,---,0.15,127.00,VWS V14.01,2013-04-18 22:08:00,
2013-04-18 17:13:00,31.5,30.5,29.65,NNW,330,15.0,24.0,96,0.02,,---,0.15,114.00,VWS V14.01,2013-04-18 22:13:00,
2013-04-18 17:18:00,31.6,30.6,29.65,NW,317,17.0,24.0,96,0.02,,---,0.15,120.00,VWS V14.01,2013-04-18 22:18:00,
2013-04-18 17:23:00,31.6,30.6,29.65,NNW,341,17.0,20.0,96,0.01,,---,0.15,125.00,VWS V14.01,2013-04-18 22:23:00,
2013-04-18 17:28:00,31.5,30.5,29.65,NW,325,21.0,23.0,96,0.01,,---,0.15,139.00,VWS V14.01,2013-04-18 22:28:00,
2013-04-18 17:33:00,31.5,30.5,29.65,NW,323,23.0,25.0,96,0.01,,---,0.15,130.00,VWS V14.01,2013-04-18 22:33:00,
2013-04-18 17:38:00,31.5,30.5,29.66,NNW,338,20.0,26.0,96,0.01,,---,0.15,118.00,VWS V14.01,2013-04-18 22:38:00,
2013-04-18 17:43:00,31.4,30.4,29.65,NW,325,20.0,26.0,96,0.01,,---,0.15,113.00,VWS V14.01,2013-04-18 22:43:00,
2013-04-18 17:48:00,31.4,30.4,29.65,NW,325,21.0,26.0,96,0.01,,---,0.15,116.00,VWS V14.01,2013-04-18 22:48:00,
2013-04-18 17:53:00,31.4,30.4,29.65,NNW,335,25.0,27.0,96,0.01,,---,0.15,121.00,VWS V14.01,2013-04-18 22:53:00,
2013-04-18 17:58:00,31.4,30.4,29.65,NNW,338,19.0,27.0,96,0.01,,---,0.15,128.00,VWS V14.01,2013-04-18 22:58:00,
2013-04-18 18:03:00,31.4,30.4,29.65,NNW,339,20.0,27.0,96,0.01,,---,0.15,132.00,VWS V14.01,2013-04-18 23:03:00,
2013-04-18 18:08:00,31.4,30.4,29.65,NW,323,16.0,24.0,96,0.00,,---,0.15,128.00,VWS V14.01,2013-04-18 23:08:00,
2013-04-18 18:13:00,31.4,30.4,29.66,NNW,334,20.0,24.0,96,0.00,,---,0.15,125.00,VWS V14.01,2013-04-18 23:13:00,
2013-04-18 18:18:00,31.4,30.4,29.66,NNW,336,15.0,24.0,96,0.00,,---,0.15,114.00,VWS V14.01,2013-04-18 23:18:00,
2013-04-18 18:23:00,31.4,30.4,29.66,NNW,329,17.0,21.0,96,0.00,,---,0.15,102.00,VWS V14.01,2013-04-18 23:23:00,
2013-04-18 18:28:00,31.5,30.5,29.66,NW,323,13.0,21.0,96,0.00,,---,0.15,90.00,VWS V14.01,2013-04-18 23:28:00,
2013-04-18 18:33:00,31.5,30.5,29.67,NW,314,17.0,21.0,96,0.01,,---,0.16,81.00,VWS V14.01,2013-04-18 23:33:00,
2013-04-18 18:38:00,31.5,30.5,29.68,NW,321,18.0,19.0,96,0.01,,---,0.16,77.00,VWS V14.01,2013-04-18 23:38:00,
2013-04-18 18:43:00,31.6,30.6,29.68,NNW,329,15.0,20.0,96,0.01,,---,0.16,70.00,VWS V14.01,2013-04-18 23:43:00,
2013-04-18 18:48:00,31.6,30.6,29.68,NW,319,14.0,20.0,96,0.01,,---,0.16,65.00,VWS V14.01,2013-04-18 23:48:00,
2013-04-18 18:53:00,31.6,30.6,29.68,NW,319,15.0,18.0,96,0.01,,---,0.16,56.00,VWS V14.01,2013-04-18 23:53:00,
2013-04-18 18:58:00,31.6,30.6,29.68,NNW,329,16.0,18.0,96,0.01,,---,0.16,47.00,VWS V14.01,2013-04-18 23:58:00,
2013-04-18 19:03:00,31.6,30.6,29.68,NW,321,12.0,18.0,96,0.01,,---,0.16,44.00,VWS V14.01,2013-04-19 00:03:00,
2013-04-18 19:08:00,31.6,30.6,29.68,NW,315,16.0,18.0,96,0.01,,---,0.16,44.00,VWS V14.01,2013-04-19 00:08:00,
2013-04-18 19:13:00,31.5,30.5,29.68,NNW,330,19.0,19.0,96,0.01,,---,0.16,42.00,VWS V14.01,2013-04-19 00:13:00,
2013-04-18 19:18:00,31.4,30.4,29.68,NNW,327,17.0,21.0,96,0.01,,---,0.16,37.00,VWS V14.01,2013-04-19 00:18:00,
2013-04-18 19:23:00,31.4,30.4,29.69,NNW,330,16.0,19.0,96,0.01,,---,0.16,30.00,VWS V14.01,2013-04-19 00:23:00,
2013-04-18 20:05:00,31.2,30.2,29.69,NNW,338,17.0,18.0,96,0.00,,---,0.16,0.00,VWS V14.01,2013-04-19 01:05:00,
2013-04-18 20:10:00,31.2,30.2,29.69,NNW,333,15.0,19.0,96,0.00,,---,0.16,0.00,VWS V14.01,2013-04-19 01:10:00,
2013-04-18 20:15:00,31.2,30.2,29.69,NNW,334,13.0,19.0,96,0.00,,---,0.16,0.00,VWS V14.01,2013-04-19 01:15:00,
2013-04-18 20:20:00,31.2,30.2,29.69,NNW,330,12.0,16.0,96,0.00,,---,0.16,0.00,VWS V14.01,2013-04-19 01:20:00,
2013-04-18 20:25:00,31.2,30.2,29.69,NW,323,15.0,17.0,96,0.00,,---,0.16,0.00,VWS V14.01,2013-04-19 01:25:00,
2013-04-18 20:30:00,31.1,30.1,29.69,NNW,330,12.0,17.0,96,0.00,,---,0.16,0.00,VWS V14.01,2013-04-19 01:30:00,
2013-04-18 20:35:00,31.1,30.1,29.70,NNW,337,12.0,15.0,96,0.00,,---,0.16,0.00,VWS V14.01,2013-04-19 01:35:00,
2013-04-18 20:40:00,31.1,30.1,29.70,NNW,331,10.0,15.0,96,0.00,,---,0.16,0.00,VWS V14.01,2013-04-19 01:40:00,
2013-04-18 21:13:00,31.2,30.2,29.70,NW,319,15.0,18.0,96,0.00,,---,0.16,0.00,VWS V14.01,2013-04-19 02:13:00,
2013-04-18 21:18:00,31.1,30.1,29.70,NNW,338,18.0,21.0,96,0.00,,---,0.16,0.00,VWS V14.01,2013-04-19 02:18:00,
2013-04-18 21:23:00,31.0,30.0,29.70,NNW,327,16.0,19.0,96,0.00,,---,0.16,0.00,VWS V14.01,2013-04-19 02:23:00,
2013-04-18 21:28:00,31.0,30.0,29.71,NNW,332,17.0,20.0,96,0.00,,---,0.16,0.00,VWS V14.01,2013-04-19 02:28:00,
2013-04-18 21:33:00,31.0,30.0,29.70,NW,318,19.0,20.0,96,0.00,,---,0.16,0.00,VWS V14.01,2013-04-19 02:33:00,
2013-04-18 21:38:00,30.9,29.9,29.70,NW,322,17.0,21.0,96,0.00,,---,0.16,0.00,VWS V14.01,2013-04-19 02:38:00,
2013-04-18 21:43:00,30.9,29.9,29.70,NW,325,16.0,21.0,96,0.00,,---,0.16,0.00,VWS V14.01,2013-04-19 02:43:00,
2013-04-18 21:48:00,30.9,29.9,29.71,NNW,331,17.0,21.0,96,0.00,,---,0.16,0.00,VWS V14.01,2013-04-19 02:48:00,
2013-04-18 21:53:00,30.9,29.9,29.70,NW,310,12.0,18.0,96,0.00,,---,0.16,0.00,VWS V14.01,2013-04-19 02:53:00,
2013-04-18 21:58:00,30.8,29.8,29.70,NW,319,16.0,18.0,96,0.00,,---,0.16,0.00,VWS V14.01,2013-04-19 02:58:00,
2013-04-18 22:03:00,30.8,29.8,29.70,NW,325,17.0,18.0,96,0.00,,---,0.16,0.00,VWS V14.01,2013-04-19 03:03:00,
2013-04-18 22:08:00,30.7,29.7,29.70,NW,311,14.0,20.0,96,0.00,,---,0.16,0.00,VWS V14.01,2013-04-19 03:08:00,
2013-04-18 22:13:00,30.6,29.6,29.70,NW,321,16.0,20.0,96,0.00,,---,0.16,0.00,VWS V14.01,2013-04-19 03:13:00,
2013-04-18 22:18:00,30.5,29.5,29.70,NW,320,18.0,20.0,96,0.00,,---,0.16,0.00,VWS V14.01,2013-04-19 03:18:00,
2013-04-18 22:23:00,30.5,29.5,29.70,NW,315,14.0,18.0,96,0.00,,---,0.16,0.00,VWS V14.01,2013-04-19 03:23:00,
2013-04-18 22:28:00,30.5,29.5,29.70,NW,319,17.0,19.0,96,0.00,,---,0.16,0.00,VWS V14.01,2013-04-19 03:28:00,
2013-04-18 22:33:00,30.4,29.4,29.70,NW,322,16.0,19.0,96,0.00,,---,0.16,0.00,VWS V14.01,2013-04-19 03:33:00,
2013-04-18 22:38:00,30.4,29.4,29.69,NNW,335,16.0,20.0,96,0.00,,---,0.16,0.00,VWS V14.01,2013-04-19 03:38:00,
2013-04-18 22:43:00,30.4,29.4,29.69,NW,315,15.0,20.0,96,0.00,,---,0.16,0.00,VWS V14.01,2013-04-19 03:43:00,
2013-04-18 22:48:00,30.4,29.4,29.69,NW,322,19.0,20.0,96,0.00,,---,0.16,0.00,VWS V14.01,2013-04-19 03:48:00,
2013-04-18 22:53:00,30.4,29.4,29.68,NW,322,14.0,19.0,96,0.00,,---,0.16,0.00,VWS V14.01,2013-04-19 03:53:00,
2013-04-18 22:58:00,30.4,29.4,29.68,NW,317,13.0,19.0,96,0.00,,---,0.16,0.00,VWS V14.01,2013-04-19 03:58:00,
2013-04-18 23:01:00,30.5,29.5,29.68,NW,314,15.0,19.0,96,0.00,,---,0.16,0.00,VWS V14.01,2013-04-19 04:01:00,
2013-04-18 23:06:00,30.4,29.4,29.68,NW,311,13.0,18.0,96,0.00,,---,0.16,0.00,VWS V14.01,2013-04-19 04:06:00,
2013-04-18 23:11:00,30.4,29.4,29.67,NW,315,16.0,18.0,96,0.00,,---,0.16,0.00,VWS V14.01,2013-04-19 04:11:00,
2013-04-18 23:16:00,30.3,29.3,29.67,NW,313,12.0,19.0,96,0.00,,---,0.16,0.00,VWS V14.01,2013-04-19 04:16:00,
2013-04-18 23:21:00,30.4,29.4,29.67,NW,321,15.0,18.0,96,0.00,,---,0.16,0.00,VWS V14.01,2013-04-19 04:21:00,
2013-04-18 23:26:00,30.3,29.3,29.67,NW,312,15.0,20.0,96,0.00,,---,0.16,0.00,VWS V14.01,2013-04-19 04:26:00,
2013-04-18 23:31:00,30.3,29.3,29.67,NW,319,19.0,20.0,96,0.00,,---,0.16,0.00,VWS V14.01,2013-04-19 04:31:00,
2013-04-18 23:36:00,30.3,29.3,29.67,NW,315,16.0,20.0,96,0.00,,---,0.16,0.00,VWS V14.01,2013-04-19 04:36:00,
2013-04-18 23:41:00,30.3,29.3,29.67,NW,313,17.0,20.0,96,0.00,,---,0.16,0.00,VWS V14.01,2013-04-19 04:41:00,
2013-04-18 23:46:00,30.3,29.3,29.67,NW,321,18.0,21.0,96,0.00,,---,0.16,0.00,VWS V14.01,2013-04-19 04:46:00,
2013-04-18 23:51:00,30.3,29.3,29.67,NW,319,14.0,22.0,96,0.00,,---,0.16,0.00,VWS V14.01,2013-04-19 04:51:00,
2013-04-18 23:56:00,30.3,29.3,29.67,NW,325,14.0,22.0,96,0.00,,---,0.16,0.00,VWS V14.01,2013-04-19 04:56:00,